MAPA DE AEROPUERTO

INFORMACIÓN METAR y TAF


Deprecated: The each() function is deprecated. This message will be suppressed on further calls in /home/customer/www/clickair-va.com/public_html/VAM/vam/helpers/get_metar.php on line 20
METAR FOR GCGM
ADDS - METARS form results

(0245 UTC 28 January 2023)
Data provider http://aviationweather.gov/metar/data/
 
METAR text: GCGM 280230Z AUTO VRB07KT 9999 -RA OVC032 16/11 Q1022 RMK R09/VRB05KT ARP/02007KT 300V070
Conditions at: GCGM (LA GOMERA ARPT , ES) observed 0230 UTC 28 January 2023
Temperature: 16.0°C (61°F)
Dewpoint: 11.0°C (52°F) [RH = 72%]
Pressure (altimeter): 30.18 inches Hg (1022.0 mb)
Winds: variable direction winds at 8 MPH (7 knots; 3.6 m/s)
Visibility: 6 or more miles (10+ km)
Ceiling: 3200 feet AGL
Clouds: overcast cloud deck at 3200 feet AGL
Weather: -RA  (light rain)

METAR text: GCGM 280200Z AUTO VRB06KT 9999 BKN030 OVC040 16/11 Q1023 RMK R09/VRB05G16KT ARP/03008KT 310V100
Conditions at: GCGM (LA GOMERA ARPT , ES) observed 0200 UTC 28 January 2023
Temperature: 16.0°C (61°F)
Dewpoint: 11.0°C (52°F) [RH = 72%]
Pressure (altimeter): 30.21 inches Hg (1023.0 mb)
Winds: variable direction winds at 7 MPH (6 knots; 3.1 m/s)
Visibility: 6 or more miles (10+ km)
Ceiling: 3000 feet AGL
Clouds: broken clouds at 3000 feet AGL
overcast cloud deck at 4000 feet AGL
Weather: no significant weather observed at this time

Forecast for: GCGM (LA GOMERA ARPT , ES)
Text: TAF GCGM 280200Z 2803/2903 02010KT 9999 FEW035 TX20/2814Z TN15/2806Z
Forecast period: 0300 UTC 28 January 2023 to 0300 UTC 29 January 2023
Forecast type: FROM: standard forecast or significant change
Winds: from the NNE (20 degrees) at 12 MPH (10 knots; 5.1 m/s)
Visibility: 6 or more miles (10+ km)
Ceiling: at least 12,000 feet AGL
Clouds: few clouds at 3500 feet AGL
Weather: no significant weather forecast for this period
Text: TEMPO 2803/2903 VRB07KT
Forecast period: 0300 UTC 28 January 2023 to 0300 UTC 29 January 2023
Forecast type: TEMPORARY: The following changes expected for less than half the time period
Winds: variable direction winds at 8 MPH (7 knots; 3.6 m/s)
Visibility: missing
Ceiling: unknown
Clouds: missing
Weather: no significant weather forecast for this period
Text: PROB40
Forecast period: 0300 to 0600 UTC 28 January 2023
Forecast type: TEMPORARY: The following changes expected for less than half the time period
Winds: variable direction winds at 17 MPH (15 knots; 7.7 m/s)
gusting to 29 MPH (25 knots; 12.9 m/s)
Visibility: missing
Ceiling: unknown
Clouds: missing
Weather: no significant weather forecast for this period
Text: TEMPO 2803/2806 VRB15G25KT
Forecast period: 1200 UTC 28 January 2023 to 0300 UTC 29 January 2023
Forecast type: TEMPORARY: The following changes expected for less than half the time period
Winds: variable direction winds at 17 MPH (15 knots; 7.7 m/s)
gusting to 29 MPH (25 knots; 12.9 m/s)
Visibility: missing
Ceiling: unknown
Clouds: missing
Weather: no significant weather forecast for this period